Nordik Express — VCYL — position and weather

sailwx.info

Track history (hours):
 
Tides and Currents Weather Stations Pressure Air Temp Water Temp Dewpoint Dewpoint Depression Visibility Wind Speed Wind Dir Waves Ship Positions

Nordik Express

Last reported at 2018-Feb-18 06:00 UTC. Time now 2018-Feb-18 06:48 UTC.
Position N 46°48' W 071°12'.

Length 69.5 m; beam 13.4 m; draft 5 m.

Type: Passenger vessel. MMSI: 316001952.

Wind from 320 at 5 knots

Barometer 1015.4 mb
Air temperature -5.0 ° C
Dewpoint -9.6 ° C

Date/timePositionNaut miles runAvg speedWind from/ knotsBaromVisibWave heightAir tempDewpointWater temp
2018-Feb-18 06:00N 46°48' W 071°12'0 0.0 320 / 51015.4 -5.0-9.6
2018-Feb-18 05:00N 46°48' W 071°12'0 0.0 320 / 51016.1 -5.3-10.2
2018-Feb-18 04:00N 46°48' W 071°12'0 0.0 330 / 31017.1 -6.0-10.5
2018-Feb-18 03:00N 46°48' W 071°12'0 0.0 310 / 51017.6 -5.9-11.1
2018-Feb-18 02:00N 46°48' W 071°12'0 0.0 310 / 41018.4 -5.7-10.4
2018-Feb-18 01:00N 46°48' W 071°12'0 0.0 320 / 41019.8 -5.5-10.4
2018-Feb-18 00:00N 46°48' W 071°12'0 0.0 320 / 51020.5 -5.2-10.5
2018-Feb-17 23:00N 46°48' W 071°12'0 0.0 320 / 31021.6 -4.1-12.0
2018-Feb-17 22:00N 46°48' W 071°12'0 0.0 210 / 11022.4 -4.3-13.2
2018-Feb-17 21:00N 46°48' W 071°12'0 0.0 200 / 31023.7 -4.1-13.1
2018-Feb-17 20:00N 46°48' W 071°12'0 0.0 170 / 11024.5 -3.3-12.2
2018-Feb-17 19:00N 46°48' W 071°12'0 0.0 320 / 21025.0 -4.9-12.0
2018-Feb-17 18:00N 46°48' W 071°12'0 0.0 340 / 31026.0 -6.0-12.4
2018-Feb-17 17:00N 46°48' W 071°12'0 0.0 330 / 31027.3 -7.3-13.5
2018-Feb-17 16:00N 46°48' W 071°12'0 0.0 330 / 31027.6 -8.8-13.4
2018-Feb-17 15:00N 46°48' W 071°12'0 0.0 060 / 31028.1 -9.7-14.2
2018-Feb-17 14:00N 46°48' W 071°12'0 0.0 220 / 21028.4 -11.9-17.2
2018-Feb-17 13:00N 46°48' W 071°12'0 0.0 200 / 41027.5 -13.4-18.0
2018-Feb-17 12:00N 46°48' W 071°12'0 0.0 210 / 31026.8 -14.0-18.0
2018-Feb-17 11:00N 46°48' W 071°12'0 0.0 180 / 51026.0 -12.6-17.7
2018-Feb-17 10:00N 46°48' W 071°12'0 0.0 170 / 51025.7 -11.9-17.6
2018-Feb-17 09:00N 46°48' W 071°12'0 0.0 170 / 61024.6 -11.5-17.5
2018-Feb-17 08:00N 46°48' W 071°12'0 0.0 170 / 71023.9 -11.3-17.6
2018-Feb-17 07:00N 46°48' W 071°12'0 0.0 160 / 61022.8 -10.4-17.6
2018-Feb-17 06:00N 46°48' W 071°12'0 0.0 160 / 51022.0 -10.1-17.6
2018-Feb-17 05:00N 46°48' W 071°12'0 0.0 180 / 51020.5 -10.0-17.6
2018-Feb-17 04:00N 46°48' W 071°12'0 0.0 180 / 51019.0 -9.4-17.4
2018-Feb-17 03:00N 46°48' W 071°12'0 0.0 180 / 71017.7 -8.9-17.5
2018-Feb-17 02:00N 46°48' W 071°12'0 0.0 190 / 91016.0 -8.4-17.6
2018-Feb-17 01:00N 46°48' W 071°12'0 0.0 200 / 101014.3 -7.6-17.6
2018-Feb-17 00:00N 46°48' W 071°12'0 0.0 220 / 81012.7 -6.9-16.2
2018-Feb-16 23:00N 46°48' W 071°12'0 0.0 220 / 101011.1 -6.3-16.6
2018-Feb-16 22:00N 46°48' W 071°12'0 0.0 230 / 91009.0 -4.9-14.4
2018-Feb-16 21:00N 46°48' W 071°12'0 0.0 210 / 81007.4 -3.8-12.7
2018-Feb-16 20:00N 46°48' W 071°12'0 0.0 200 / 11005.8 -2.6-10.5
2018-Feb-16 19:00N 46°48' W 071°12'0 0.0 330 / 31004.3 -2.0-7.2
2018-Feb-16 18:00N 46°48' W 071°12'0 0.0 010 / 11003.1 -0.9-3.7
2018-Feb-16 17:00N 46°48' W 071°12'0 0.0 360 / 91001.8 -0.7-6.4
2018-Feb-16 16:00N 46°48' W 071°12'0 0.0 230 / 51002.0 0.5-6.2
2018-Feb-16 15:00N 46°48' W 071°12'0 0.0 220 / 61001.1 1.1-5.6
2018-Feb-16 14:00N 46°48' W 071°12'0 0.0 220 / 61001.6 1.2-4.8
2018-Feb-16 13:00N 46°48' W 071°12'0 0.0 170 / 41001.5 1.5-1.0
2018-Feb-16 12:00N 46°48' W 071°12'0 0.0 180 / 51001.0 1.8-1.0
2018-Feb-16 11:00N 46°48' W 071°12'0 0.0 190 / 81000.9 2.1 1.5
2018-Feb-16 10:00N 46°48' W 071°12'0 0.0 180 / 71000.5 2.4 2.4
2018-Feb-16 09:00N 46°48' W 071°12'0 0.0 170 / 51000.9 2.7 2.8
2018-Feb-16 08:00N 46°48' W 071°12'0 0.0 160 / 61000.7 3.0 3.0
2018-Feb-16 07:00N 46°48' W 071°12'0 0.0 160 / 51000.3 3.1 3.2
2018-Feb-16 06:00N 46°48' W 071°12'0 0.0 190 / 6999.8 2.7 2.8
2018-Feb-16 05:00N 46°48' W 071°12'0 0.0 160 / 5999.5 3.2 3.3
2018-Feb-16 04:00N 46°48' W 071°12'0 0.0 180 / 5999.4 2.7 2.8
2018-Feb-16 03:00N 46°48' W 071°12'0 0.0 170 / 4999.4 2.8 2.9
2018-Feb-16 02:00N 46°48' W 071°12'0 0.0 160 / 4999.5 2.4 2.6
2018-Feb-16 01:00N 46°48' W 071°12'0 0.0 170 / 7999.5 2.1 2.3
2018-Feb-16 00:00N 46°48' W 071°12'0 0.0 170 / 9999.2 2.4 2.6
2018-Feb-15 23:00N 46°48' W 071°12'0 0.0 180 / 2998.8 1.3 1.5
2018-Feb-15 22:00N 46°48' W 071°12'0 0.0 350 / 2998.7 0.9 1.1
2018-Feb-15 21:00N 46°48' W 071°12'0 0.0 330 / 2999.8 0.2 0.3
2018-Feb-15 20:00N 46°48' W 071°12'0 0.0 320 / 11001.0 1.2 1.2
2018-Feb-15 19:00N 46°48' W 071°12'0 0.0 030 / 11002.1 1.7 1.6
2018-Feb-15 18:00N 46°48' W 071°12'0 0.0 330 / 31003.8 0.5 0.4
2018-Feb-15 17:00N 46°48' W 071°12'0 0.0 230 / 21006.0 0.5 0.4
2018-Feb-15 16:00N 46°48' W 071°12'0 0.0 210 / 31007.2 -0.1-0.1
2018-Feb-15 15:00N 46°48' W 071°12'0 0.0 190 / 31008.6 -0.2-0.2
2018-Feb-15 14:00N 46°48' W 071°12'0 0.0 180 / 41008.9 -0.0-0.1
2018-Feb-15 13:00N 46°48' W 071°12'0 0.0 1009.6 -0.3-0.3
2018-Feb-15 12:00N 46°48' W 071°12'0 0.0 090 / 41009.4 -0.7-0.7
2018-Feb-15 11:00N 46°48' W 071°12'0 0.0 090 / 41009.8 -1.1-1.0
2018-Feb-15 10:00N 46°48' W 071°12'0 0.0 100 / 11010.5 -0.7-0.7
2018-Feb-15 09:00N 46°48' W 071°12'0 0.0 150 / 31010.6 0.1-0.0
2018-Feb-15 08:00N 46°48' W 071°12'0 0.0 150 / 21011.2 -0.0-0.1
2018-Feb-15 07:00N 46°48' W 071°12'0 0.0 150 / 21012.1 0.1 0.1
2018-Feb-15 06:00N 46°48' W 071°12'0 0.0 200 / 31012.1 -1.3-1.3
2018-Feb-15 05:00N 46°48' W 071°12'0 0.0 180 / 41012.4 -0.2-0.2
2018-Feb-15 04:00N 46°48' W 071°12'0 0.0 180 / 21012.3 0.3 0.2
2018-Feb-15 03:00N 46°48' W 071°12'0 0.0 180 / 21012.1 0.1 0.1
2018-Feb-15 02:00N 46°48' W 071°12'0 0.0 180 / 31012.2 0.8 0.3
2018-Feb-15 01:00N 46°48' W 071°12'0 0.0 180 / 31012.0 1.6 0.2
2018-Feb-15 00:00N 46°48' W 071°12'0 0.0 160 / 41011.8 2.5 0.1
2018-Feb-14 23:00N 46°48' W 071°12'0 0.0 160 / 61012.0 2.8-0.5
2018-Feb-14 22:00N 46°48' W 071°12'0 0.0 160 / 81012.6 2.7-0.5
2018-Feb-14 21:00N 46°48' W 071°12'0 0.0 160 / 71012.8 2.1-1.3
2018-Feb-14 20:00N 46°48' W 071°12'0 0.0 170 / 41013.3 0.7-3.8
2018-Feb-14 19:00N 46°48' W 071°12'0 0.0 160 / 41014.4 -0.8-6.0
2018-Feb-14 18:00N 46°48' W 071°12'0 0.0 170 / 61015.5 -1.6-7.4
2018-Feb-14 17:00N 46°48' W 071°12'0 0.0 150 / 51017.1 -2.5-8.5
2018-Feb-14 16:00N 46°48' W 071°12'0 0.0 160 / 51018.1 -4.9-10.0
2018-Feb-14 15:00N 46°48' W 071°12'0 0.0 140 / 41019.3 -5.2-10.6
2018-Feb-14 14:00N 46°48' W 071°12'0 0.0 150 / 41019.8 -6.8-11.9
2018-Feb-14 13:00N 46°48' W 071°12'0 0.0 160 / 51020.2 -7.7-12.7
2018-Feb-14 12:00N 46°48' W 071°12'0 0.0 160 / 21020.8 -9.2-13.5
2018-Feb-14 11:00N 46°48' W 071°12'0 0.0 210 / 21021.8 -11.0-13.5
2018-Feb-14 10:00N 46°48' W 071°12'0 0.0 210 / 31022.8 -11.1-13.1
2018-Feb-14 09:00N 46°48' W 071°12'0 0.0 090 / 11023.7 -9.1-12.2
2018-Feb-14 08:00N 46°48' W 071°12'0 0.0 080 / 21025.7 -8.8-11.9
2018-Feb-14 07:00N 46°48' W 071°12'0 0.0 1027.0 -9.4-13.4
2018-Feb-14 06:00N 46°48' W 071°12'0 0.0 180 / 21028.6 -9.2-13.7
2018-Feb-14 05:00N 46°48' W 071°12'0 0.0 160 / 31030.1 -8.9-13.4
2018-Feb-14 04:00N 46°48' W 071°12'0 0.0 170 / 41031.3 -9.4-13.5
2018-Feb-14 03:00N 46°48' W 071°12'0 0.0 1032.4 -9.3-13.7
2018-Feb-14 02:00N 46°48' W 071°12'0 0.0 180 / 31034.0 -8.9-14.1
2018-Feb-14 01:00N 46°48' W 071°12'0 0.0 160 / 41035.0 -7.6-14.7
2018-Feb-14 00:00N 46°48' W 071°12'0 0.0 160 / 51036.3 -7.4-15.0
2018-Feb-13 23:00N 46°48' W 071°12'0 0.0 170 / 51037.0 -7.3-15.0
2018-Feb-13 22:00N 46°48' W 071°12'0 0.0 180 / 51038.0 -8.2-15.4
2018-Feb-13 21:00N 46°48' W 071°12'0 0.0 180 / 41039.0 -8.0-15.9
2018-Feb-13 20:00N 46°48' W 071°12'0 0.0 200 / 61040.2 -8.6-16.9
2018-Feb-13 19:00N 46°48' W 071°12'0 0.0 170 / 41041.0 -8.3-17.5
2018-Feb-13 18:00N 46°48' W 071°12'0 0.0 170 / 71042.4 -9.6-18.8
2018-Feb-13 17:00N 46°48' W 071°12'0 0.0 160 / 71043.5 -10.5-19.6
2018-Feb-13 16:00N 46°48' W 071°12'0 0.0 160 / 51044.2 -11.5-21.0
2018-Feb-13 15:00N 46°48' W 071°12'0 0.0 150 / 51044.5 -12.9-21.3
2018-Feb-13 14:00N 46°48' W 071°12'0 0.0 180 / 61044.6 -14.3-20.4
2018-Feb-13 13:00N 46°48' W 071°12'0 0.0 170 / 61044.3 -15.5-20.6
2018-Feb-13 12:00N 46°48' W 071°12'0 0.0 180 / 61043.5 -16.1-20.5
2018-Feb-13 11:00N 46°48' W 071°12'0 0.0 170 / 61042.5 -14.8-20.5
2018-Feb-13 10:00N 46°48' W 071°12'0 0.0 160 / 51041.7 -13.7-20.1
2018-Feb-13 09:00N 46°48' W 071°12'0 0.0 150 / 41040.7 -13.2-19.4
2018-Feb-13 08:00N 46°48' W 071°12'0 0.0 180 / 101039.8 -12.9-20.3
2018-Feb-13 07:00N 46°48' W 071°12'0 0.0 170 / 61039.1 -11.9-18.3
2018-Feb-13 06:00N 46°48' W 071°12'0 0.0 170 / 51038.6 -11.2-16.8
2018-Feb-13 05:00N 46°48' W 071°12'0 0.0 170 / 51037.5 -10.6-16.0
2018-Feb-13 04:00N 46°48' W 071°12'0 0.0 170 / 71036.6 -9.8-15.8
2018-Feb-13 03:00N 46°48' W 071°12'0 0.0 170 / 61035.5 -9.1-15.3
2018-Feb-13 02:00N 46°48' W 071°12'0 0.0 180 / 81034.6 -8.9-13.6
2018-Feb-13 01:00N 46°48' W 071°12'0 0.0 190 / 91033.0 -8.4-14.6
2018-Feb-13 00:00N 46°48' W 071°12'0 0.0 200 / 81031.5 -7.6-14.3
2018-Feb-12 23:00N 46°48' W 071°12'0 0.0 190 / 81030.2 -6.5-12.5
2018-Feb-12 22:00N 46°48' W 071°12'0 0.0 190 / 91028.4 -5.8-10.7
2018-Feb-12 21:00N 46°48' W 071°12'0 0.0 190 / 121027.1 -5.4-10.2
2018-Feb-12 20:00N 46°48' W 071°12'0 0.0 190 / 121025.6 -5.0-10.4
2018-Feb-12 19:00N 46°48' W 071°12'0 0.0 180 / 111024.8 -5.0-6.2
2018-Feb-12 18:00N 46°48' W 071°12'0 0.0 180 / 111024.5 -3.9-9.0
2018-Feb-12 17:00N 46°48' W 071°12'0 0.0 180 / 41024.0 -4.6-8.1
2018-Feb-12 16:00N 46°48' W 071°12'0 0.0 180 / 41023.5 -5.2-8.6
2018-Feb-12 15:00N 46°48' W 071°12'0 0.0 180 / 41022.6 -5.3-8.8
2018-Feb-12 14:00N 46°48' W 071°12'0 0.0 180 / 41021.8 -5.1-9.0
2018-Feb-12 13:00N 46°48' W 071°12'0 0.0 170 / 31020.1 -4.9-6.3
2018-Feb-12 12:00N 46°48' W 071°12'0 0.0 180 / 31018.1 -4.2-6.6
2018-Feb-12 11:00N 46°48' W 071°12'0 0.0 180 / 41016.4 -3.2-6.3
2018-Feb-12 10:00N 46°48' W 071°12'0 0.0 180 / 31013.9 -1.2-3.2
2018-Feb-12 09:00N 46°48' W 071°12'0 0.0 170 / 31011.0 0.5 0.4
2018-Feb-12 08:00N 46°48' W 071°12'0 0.0 170 / 31009.5 0.7 0.8
2018-Feb-12 07:00N 46°48' W 071°12'0 0.0 160 / 21008.0 0.3 0.4
2018-Feb-12 06:00N 46°48' W 071°12'0 0.0 1006.5 -1.2-1.0
2018-Feb-12 05:00N 46°48' W 071°12'0 0.0 1005.6 -1.5-1.3
2018-Feb-12 04:00N 46°48' W 071°12'0 0.0 350 / 31005.1 -1.9-1.8
2018-Feb-12 03:00N 46°48' W 071°12'0 0.0 350 / 41005.7 -2.7-2.6
2018-Feb-12 02:00N 46°48' W 071°12'0 0.0 360 / 81007.0 -3.4-3.4
2018-Feb-12 01:00N 46°48' W 071°12'0 0.0 350 / 111008.5 -3.7-3.6
2018-Feb-12 00:00N 46°48' W 071°12'0 0.0 360 / 161010.0 -4.8-4.8
2018-Feb-11 19:00N 46°48' W 071°12'0 0.0 360 / 161019.9 -5.2-7.2
2018-Feb-11 18:00N 46°48' W 071°12'0 0.0 350 / 151021.8 -5.1-6.7
2018-Feb-11 17:00N 46°48' W 071°12'0 0.0 340 / 101023.1 -5.0-6.7
2018-Feb-11 16:00N 46°48' W 071°12'0 0.0 360 / 151024.6 -4.9-7.0
2018-Feb-11 15:00N 46°48' W 071°12'0 0.0 360 / 131025.3 -4.9-6.2
2018-Feb-11 14:00N 46°48' W 071°12'0 0.0 350 / 151025.4 -4.9-6.5
2018-Feb-11 13:00N 46°48' W 071°12'0 0.0 360 / 161025.0 -4.9-7.2
2018-Feb-11 12:00N 46°48' W 071°12'0 0.0 350 / 121024.6 -4.7-6.3
2018-Feb-11 11:00N 46°48' W 071°12'0 0.0 350 / 121024.0 -4.4-4.9
2018-Feb-11 10:00N 46°48' W 071°12'0 0.0 360 / 141023.5 -4.4-4.6
2018-Feb-11 09:00N 46°48' W 071°12'0 0.0 320 / 41023.0 -5.2-5.1
2018-Feb-11 08:00N 46°48' W 071°12'0 0.0 260 / 21022.6 -5.5-5.6
2018-Feb-11 07:00N 46°48' W 071°12'0 0.0 160 / 31022.6 -4.9-4.9
2018-Feb-11 06:00N 46°48' W 071°12'0 0.0 170 / 51022.3 -5.1-5.1
2018-Feb-11 05:00N 46°48' W 071°12'0 0.0 180 / 51022.6 -5.1-5.1
2018-Feb-11 04:00N 46°48' W 071°12'0 0.0 170 / 41022.2 -4.7-4.7
2018-Feb-11 03:00N 46°48' W 071°12'0 0.0 170 / 31022.1 -4.5-4.5
2018-Feb-11 02:00N 46°48' W 071°12'0 0.0 160 / 31022.3 -4.5-4.5
2018-Feb-11 01:00N 46°48' W 071°12'0 0.0 180 / 41022.1 -5.2-5.1
2018-Feb-11 00:00N 46°48' W 071°12'0 0.0 200 / 31022.0 -5.6-5.5
2018-Feb-10 23:00N 46°48' W 071°12'0 0.0 200 / 21021.6 -5.5-5.5
2018-Feb-10 22:00N 46°48' W 071°12'0 0.0 190 / 21021.0 -5.7-5.6
2018-Feb-10 21:00N 46°48' W 071°12'0 0.0 170 / 11020.9 -5.0-5.0
2018-Feb-10 20:00N 46°48' W 071°12'0 0.0 230 / 11020.6 -4.6-5.1
2018-Feb-10 19:00N 46°48' W 071°12'0 0.0 050 / 21021.2 -4.9-5.2
2018-Feb-10 18:00N 46°48' W 071°12'0 0.0 330 / 11022.2 -5.7-5.8
2018-Feb-10 17:00N 46°48' W 071°12'0 0.0 320 / 21022.7 -6.3-6.3
2018-Feb-10 16:00N 46°48' W 071°12'0 0.0 320 / 31023.9 -7.2-7.3
2018-Feb-10 15:00N 46°48' W 071°12'0 0.0 310 / 41024.4 -7.8-7.9
2018-Feb-10 14:00N 46°48' W 071°12'0 0.0 320 / 41024.8 -8.9-9.0
2018-Feb-10 13:00N 46°48' W 071°12'0 0.0 310 / 41025.3 -9.5-9.6
2018-Feb-10 12:00N 46°48' W 071°12'0 0.0 320 / 51025.1 -10.3-10.4
2018-Feb-10 11:00N 46°48' W 071°12'0 0.0 320 / 31025.2 -10.2-10.3
2018-Feb-10 10:00N 46°48' W 071°12'0 0.0 320 / 51025.6 -11.4-11.5
2018-Feb-10 09:00N 46°48' W 071°12'0 0.0 320 / 51026.0 -12.4-12.5
2018-Feb-10 08:00N 46°48' W 071°12'0 0.0 330 / 31026.9 -12.4-13.6
2018-Feb-10 07:00N 46°48' W 071°12'0 0.0 290 / 11027.3 -12.1-13.7
2018-Feb-10 06:00N 46°48' W 071°12'0 0.0 210 / 21028.1 -12.7-14.2
2018-Feb-10 05:00N 46°48' W 071°12'0 0.0 210 / 11028.7 -12.6-14.5
2018-Feb-10 04:00N 46°48' W 071°12'0 0.0 230 / 11028.9 -11.6-13.9
2018-Feb-10 03:00N 46°48' W 071°12'0 0.0 280 / 11029.5 -10.5-13.7
2018-Feb-10 02:00N 46°48' W 071°12'0 0.0 210 / 21029.8 -10.1-14.7
2018-Feb-10 01:00N 46°48' W 071°12'0 0.0 180 / 21030.0 -9.8-14.5
2018-Feb-10 00:00N 46°48' W 071°12'0 0.0 190 / 31030.1 -9.6-14.7
2018-Feb-09 23:00N 46°48' W 071°12'0 0.0 170 / 61029.9 -8.4-14.6
2018-Feb-09 22:00N 46°48' W 071°12'0 0.0 180 / 51029.4 -8.3-14.8
2018-Feb-09 21:00N 46°48' W 071°12'0 0.0 180 / 101029.3 -7.8-15.3
2018-Feb-09 20:00N 46°48' W 071°12'0 0.0 170 / 81029.3 -8.0-14.3
2018-Feb-09 19:00N 46°48' W 071°12'0 0.0 160 / 91029.0 -7.8-14.6
2018-Feb-09 18:00N 46°48' W 071°12'0 0.0 170 / 71029.1 -8.3-13.0
2018-Feb-09 17:00N 46°48' W 071°12'0 0.0 160 / 71030.1 -8.9-13.2
2018-Feb-09 16:00N 46°48' W 071°12'0 0.0 160 / 71030.5 -9.7-12.7
2018-Feb-09 15:00N 46°48' W 071°12'0 0.0 170 / 71030.0 -10.9-12.5
2018-Feb-09 14:00N 46°48' W 071°12'0 0.0 170 / 61029.4 -11.6-12.6
2018-Feb-09 13:00N 46°48' W 071°12'0 0.0 170 / 61029.3 -11.7-12.3
2018-Feb-09 12:00N 46°48' W 071°12'0 0.0 180 / 31028.6 -13.3-14.2
2018-Feb-09 11:00N 46°48' W 071°12'0 0.0 170 / 41027.8 -13.5-14.8
2018-Feb-09 10:00N 46°48' W 071°12'0 0.0 190 / 51027.1 -13.8-15.2
2018-Feb-09 09:00N 46°48' W 071°12'0 0.0 200 / 31026.4 -14.1-15.3
2018-Feb-09 08:00N 46°48' W 071°12'0 0.0 160 / 31026.2 -12.9-14.3
2018-Feb-09 07:00N 46°48' W 071°12'0 0.0 180 / 41026.1 -13.1-15.1
2018-Feb-09 06:00N 46°48' W 071°12'0 0.0 190 / 31025.6 -13.4-15.5
2018-Feb-09 05:00N 46°48' W 071°12'0 0.0 180 / 41025.5 -12.4-15.2
2018-Feb-09 04:00N 46°48' W 071°12'0 0.0 160 / 61025.2 -11.1-14.5
2018-Feb-09 03:00N 46°48' W 071°12'0 0.0 170 / 51025.3 -11.4-14.5
2018-Feb-09 02:00N 46°48' W 071°12'0 0.0 210 / 11025.3 -11.6-14.9
2018-Feb-09 01:00N 46°48' W 071°12'0 0.0 100 / 31025.0 -10.0-14.0
2018-Feb-09 00:00N 46°48' W 071°12'0 0.0 120 / 21024.8 -9.1-14.1
2018-Feb-08 23:00N 46°48' W 071°12'0 0.0 200 / 31024.3 -9.7-16.0
2018-Feb-08 22:00N 46°48' W 071°12'0 0.0 170 / 71023.7 -8.6-15.9
2018-Feb-08 21:00N 46°48' W 071°12'0 0.0 170 / 81023.3 -7.9-15.5
2018-Feb-08 20:00N 46°48' W 071°12'0 0.0 170 / 81023.2 -7.8-14.8
2018-Feb-08 19:00N 46°48' W 071°12'0 0.0 150 / 71023.4 -7.9-14.0
2018-Feb-08 18:00N 46°48' W 071°12'0 0.0 170 / 71023.9 -8.3-15.0
2018-Feb-08 17:00N 46°48' W 071°12'0 0.0 160 / 71024.6 -9.2-15.2
2018-Feb-08 16:00N 46°48' W 071°12'0 0.0 170 / 61025.4 -10.1-16.0
2018-Feb-08 15:00N 46°48' W 071°12'0 0.0 170 / 51025.3 -10.7-15.8
2018-Feb-08 14:00N 46°48' W 071°12'0 0.0 190 / 71024.4 -12.4-16.6
2018-Feb-08 13:00N 46°48' W 071°12'0 0.0 190 / 81023.5 -13.2-16.9
2018-Feb-08 12:00N 46°48' W 071°12'0 0.0 180 / 51021.8 -11.6-15.7
2018-Feb-08 11:00N 46°48' W 071°12'0 0.0 170 / 51020.7 -10.9-14.7
2018-Feb-08 10:00N 46°48' W 071°12'0 0.0 200 / 31020.5 -11.2-14.4
2018-Feb-08 09:00N 46°48' W 071°12'0 0.0 170 / 41020.0 -9.6-13.1
2018-Feb-08 08:00N 46°48' W 071°12'0 0.0 190 / 81019.3 -9.7-11.7
2018-Feb-08 07:00N 46°48' W 071°12'0 0.0 170 / 41018.3 -9.3-9.6
2018-Feb-08 06:00N 46°48' W 071°12'   160 / 41017.8 -9.0-9.1
Track history (hours):
 
Tides and Currents Weather Stations Pressure Air Temp Water Temp Dewpoint Dewpoint Depression Visibility Wind Speed Wind Dir Waves Ship Positions

Nordik Express

Last reported at 2018-Feb-18 06:00 UTC. Time now 2018-Feb-18 06:48 UTC.
Position N 46°48' W 071°12'.

Length 69.5 m; beam 13.4 m; draft 5 m.

Type: Passenger vessel. MMSI: 316001952.

Wind from 320 at 5 knots

Barometer 1015.4 mb
Air temperature -5.0 ° C
Dewpoint -9.6 ° C

Date/timePositionNaut miles runAvg speedWind from/ knotsBaromVisibWave heightAir tempDewpointWater temp
2018-Feb-18 06:00N 46°48' W 071°12'0 0.0 320 / 51015.4 -5.0-9.6
2018-Feb-18 05:00N 46°48' W 071°12'0 0.0 320 / 51016.1 -5.3-10.2
2018-Feb-18 04:00N 46°48' W 071°12'0 0.0 330 / 31017.1 -6.0-10.5
2018-Feb-18 03:00N 46°48' W 071°12'0 0.0 310 / 51017.6 -5.9-11.1
2018-Feb-18 02:00N 46°48' W 071°12'0 0.0 310 / 41018.4 -5.7-10.4
2018-Feb-18 01:00N 46°48' W 071°12'0 0.0 320 / 41019.8 -5.5-10.4
2018-Feb-18 00:00N 46°48' W 071°12'0 0.0 320 / 51020.5 -5.2-10.5
2018-Feb-17 23:00N 46°48' W 071°12'0 0.0 320 / 31021.6 -4.1-12.0
2018-Feb-17 22:00N 46°48' W 071°12'0 0.0 210 / 11022.4 -4.3-13.2
2018-Feb-17 21:00N 46°48' W 071°12'0 0.0 200 / 31023.7 -4.1-13.1
2018-Feb-17 20:00N 46°48' W 071°12'0 0.0 170 / 11024.5 -3.3-12.2
2018-Feb-17 19:00N 46°48' W 071°12'0 0.0 320 / 21025.0 -4.9-12.0
2018-Feb-17 18:00N 46°48' W 071°12'0 0.0 340 / 31026.0 -6.0-12.4
2018-Feb-17 17:00N 46°48' W 071°12'0 0.0 330 / 31027.3 -7.3-13.5
2018-Feb-17 16:00N 46°48' W 071°12'0 0.0 330 / 31027.6 -8.8-13.4
2018-Feb-17 15:00N 46°48' W 071°12'0 0.0 060 / 31028.1 -9.7-14.2
2018-Feb-17 14:00N 46°48' W 071°12'0 0.0 220 / 21028.4 -11.9-17.2
2018-Feb-17 13:00N 46°48' W 071°12'0 0.0 200 / 41027.5 -13.4-18.0
2018-Feb-17 12:00N 46°48' W 071°12'0 0.0 210 / 31026.8 -14.0-18.0
2018-Feb-17 11:00N 46°48' W 071°12'0 0.0 180 / 51026.0 -12.6-17.7
2018-Feb-17 10:00N 46°48' W 071°12'0 0.0 170 / 51025.7 -11.9-17.6
2018-Feb-17 09:00N 46°48' W 071°12'0 0.0 170 / 61024.6 -11.5-17.5
2018-Feb-17 08:00N 46°48' W 071°12'0 0.0 170 / 71023.9 -11.3-17.6
2018-Feb-17 07:00N 46°48' W 071°12'0 0.0 160 / 61022.8 -10.4-17.6
2018-Feb-17 06:00N 46°48' W 071°12'0 0.0 160 / 51022.0 -10.1-17.6
2018-Feb-17 05:00N 46°48' W 071°12'0 0.0 180 / 51020.5 -10.0-17.6
2018-Feb-17 04:00N 46°48' W 071°12'0 0.0 180 / 51019.0 -9.4-17.4
2018-Feb-17 03:00N 46°48' W 071°12'0 0.0 180 / 71017.7 -8.9-17.5
2018-Feb-17 02:00N 46°48' W 071°12'0 0.0 190 / 91016.0 -8.4-17.6
2018-Feb-17 01:00N 46°48' W 071°12'0 0.0 200 / 101014.3 -7.6-17.6
2018-Feb-17 00:00N 46°48' W 071°12'0 0.0 220 / 81012.7 -6.9-16.2
2018-Feb-16 23:00N 46°48' W 071°12'0 0.0 220 / 101011.1 -6.3-16.6
2018-Feb-16 22:00N 46°48' W 071°12'0 0.0 230 / 91009.0 -4.9-14.4
2018-Feb-16 21:00N 46°48' W 071°12'0 0.0 210 / 81007.4 -3.8-12.7
2018-Feb-16 20:00N 46°48' W 071°12'0 0.0 200 / 11005.8 -2.6-10.5
2018-Feb-16 19:00N 46°48' W 071°12'0 0.0 330 / 31004.3 -2.0-7.2
2018-Feb-16 18:00N 46°48' W 071°12'0 0.0 010 / 11003.1 -0.9-3.7
2018-Feb-16 17:00N 46°48' W 071°12'0 0.0 360 / 91001.8 -0.7-6.4
2018-Feb-16 16:00N 46°48' W 071°12'0 0.0 230 / 51002.0 0.5-6.2
2018-Feb-16 15:00N 46°48' W 071°12'0 0.0 220 / 61001.1 1.1-5.6
2018-Feb-16 14:00N 46°48' W 071°12'0 0.0 220 / 61001.6 1.2-4.8
2018-Feb-16 13:00N 46°48' W 071°12'0 0.0 170 / 41001.5 1.5-1.0
2018-Feb-16 12:00N 46°48' W 071°12'0 0.0 180 / 51001.0 1.8-1.0
2018-Feb-16 11:00N 46°48' W 071°12'0 0.0 190 / 81000.9 2.1 1.5
2018-Feb-16 10:00N 46°48' W 071°12'0 0.0 180 / 71000.5 2.4 2.4
2018-Feb-16 09:00N 46°48' W 071°12'0 0.0 170 / 51000.9 2.7 2.8
2018-Feb-16 08:00N 46°48' W 071°12'0 0.0 160 / 61000.7 3.0 3.0
2018-Feb-16 07:00N 46°48' W 071°12'0 0.0 160 / 51000.3 3.1 3.2
2018-Feb-16 06:00N 46°48' W 071°12'0 0.0 190 / 6999.8 2.7 2.8
2018-Feb-16 05:00N 46°48' W 071°12'0 0.0 160 / 5999.5 3.2 3.3
2018-Feb-16 04:00N 46°48' W 071°12'0 0.0 180 / 5999.4 2.7 2.8
2018-Feb-16 03:00N 46°48' W 071°12'0 0.0 170 / 4999.4 2.8 2.9
2018-Feb-16 02:00N 46°48' W 071°12'0 0.0 160 / 4999.5 2.4 2.6
2018-Feb-16 01:00N 46°48' W 071°12'0 0.0 170 / 7999.5 2.1 2.3
2018-Feb-16 00:00N 46°48' W 071°12'0 0.0 170 / 9999.2 2.4 2.6
2018-Feb-15 23:00N 46°48' W 071°12'0 0.0 180 / 2998.8 1.3 1.5
2018-Feb-15 22:00N 46°48' W 071°12'0 0.0 350 / 2998.7 0.9 1.1
2018-Feb-15 21:00N 46°48' W 071°12'0 0.0 330 / 2999.8 0.2 0.3
2018-Feb-15 20:00N 46°48' W 071°12'0 0.0 320 / 11001.0 1.2 1.2
2018-Feb-15 19:00N 46°48' W 071°12'0 0.0 030 / 11002.1 1.7 1.6
2018-Feb-15 18:00N 46°48' W 071°12'0 0.0 330 / 31003.8 0.5 0.4
2018-Feb-15 17:00N 46°48' W 071°12'0 0.0 230 / 21006.0 0.5 0.4
2018-Feb-15 16:00N 46°48' W 071°12'0 0.0 210 / 31007.2 -0.1-0.1
2018-Feb-15 15:00N 46°48' W 071°12'0 0.0 190 / 31008.6 -0.2-0.2
2018-Feb-15 14:00N 46°48' W 071°12'0 0.0 180 / 41008.9 -0.0-0.1
2018-Feb-15 13:00N 46°48' W 071°12'0 0.0 1009.6 -0.3-0.3
2018-Feb-15 12:00N 46°48' W 071°12'0 0.0 090 / 41009.4 -0.7-0.7
2018-Feb-15 11:00N 46°48' W 071°12'0 0.0 090 / 41009.8 -1.1-1.0
2018-Feb-15 10:00N 46°48' W 071°12'0 0.0 100 / 11010.5 -0.7-0.7
2018-Feb-15 09:00N 46°48' W 071°12'0 0.0 150 / 31010.6 0.1-0.0
2018-Feb-15 08:00N 46°48' W 071°12'0 0.0 150 / 21011.2 -0.0-0.1
2018-Feb-15 07:00N 46°48' W 071°12'0 0.0 150 / 21012.1 0.1 0.1
2018-Feb-15 06:00N 46°48' W 071°12'0 0.0 200 / 31012.1 -1.3-1.3
2018-Feb-15 05:00N 46°48' W 071°12'0 0.0 180 / 41012.4 -0.2-0.2
2018-Feb-15 04:00N 46°48' W 071°12'0 0.0 180 / 21012.3 0.3 0.2
2018-Feb-15 03:00N 46°48' W 071°12'0 0.0 180 / 21012.1 0.1 0.1
2018-Feb-15 02:00N 46°48' W 071°12'0 0.0 180 / 31012.2 0.8 0.3
2018-Feb-15 01:00N 46°48' W 071°12'0 0.0 180 / 31012.0 1.6 0.2
2018-Feb-15 00:00N 46°48' W 071°12'0 0.0 160 / 41011.8 2.5 0.1
2018-Feb-14 23:00N 46°48' W 071°12'0 0.0 160 / 61012.0 2.8-0.5
2018-Feb-14 22:00N 46°48' W 071°12'0 0.0 160 / 81012.6 2.7-0.5
2018-Feb-14 21:00N 46°48' W 071°12'0 0.0 160 / 71012.8 2.1-1.3
2018-Feb-14 20:00N 46°48' W 071°12'0 0.0 170 / 41013.3 0.7-3.8
2018-Feb-14 19:00N 46°48' W 071°12'0 0.0 160 / 41014.4 -0.8-6.0
2018-Feb-14 18:00N 46°48' W 071°12'0 0.0 170 / 61015.5 -1.6-7.4
2018-Feb-14 17:00N 46°48' W 071°12'0 0.0 150 / 51017.1 -2.5-8.5
2018-Feb-14 16:00N 46°48' W 071°12'0 0.0 160 / 51018.1 -4.9-10.0
2018-Feb-14 15:00N 46°48' W 071°12'0 0.0 140 / 41019.3 -5.2-10.6
2018-Feb-14 14:00N 46°48' W 071°12'0 0.0 150 / 41019.8 -6.8-11.9
2018-Feb-14 13:00N 46°48' W 071°12'0 0.0 160 / 51020.2 -7.7-12.7
2018-Feb-14 12:00N 46°48' W 071°12'0 0.0 160 / 21020.8 -9.2-13.5
2018-Feb-14 11:00N 46°48' W 071°12'0 0.0 210 / 21021.8 -11.0-13.5
2018-Feb-14 10:00N 46°48' W 071°12'0 0.0 210 / 31022.8 -11.1-13.1
2018-Feb-14 09:00N 46°48' W 071°12'0 0.0 090 / 11023.7 -9.1-12.2
2018-Feb-14 08:00N 46°48' W 071°12'0 0.0 080 / 21025.7 -8.8-11.9
2018-Feb-14 07:00N 46°48' W 071°12'0 0.0 1027.0 -9.4-13.4
2018-Feb-14 06:00N 46°48' W 071°12'0 0.0 180 / 21028.6 -9.2-13.7
2018-Feb-14 05:00N 46°48' W 071°12'0 0.0 160 / 31030.1 -8.9-13.4
2018-Feb-14 04:00N 46°48' W 071°12'0 0.0 170 / 41031.3 -9.4-13.5
2018-Feb-14 03:00N 46°48' W 071°12'0 0.0 1032.4 -9.3-13.7
2018-Feb-14 02:00N 46°48' W 071°12'0 0.0 180 / 31034.0 -8.9-14.1
2018-Feb-14 01:00N 46°48' W 071°12'0 0.0 160 / 41035.0 -7.6-14.7
2018-Feb-14 00:00N 46°48' W 071°12'0 0.0 160 / 51036.3 -7.4-15.0
2018-Feb-13 23:00N 46°48' W 071°12'0 0.0 170 / 51037.0 -7.3-15.0
2018-Feb-13 22:00N 46°48' W 071°12'0 0.0 180 / 51038.0 -8.2-15.4
2018-Feb-13 21:00N 46°48' W 071°12'0 0.0 180 / 41039.0 -8.0-15.9
2018-Feb-13 20:00N 46°48' W 071°12'0 0.0 200 / 61040.2 -8.6-16.9
2018-Feb-13 19:00N 46°48' W 071°12'0 0.0 170 / 41041.0 -8.3-17.5
2018-Feb-13 18:00N 46°48' W 071°12'0 0.0 170 / 71042.4 -9.6-18.8
2018-Feb-13 17:00N 46°48' W 071°12'0 0.0 160 / 71043.5 -10.5-19.6
2018-Feb-13 16:00N 46°48' W 071°12'0 0.0 160 / 51044.2 -11.5-21.0
2018-Feb-13 15:00N 46°48' W 071°12'0 0.0 150 / 51044.5 -12.9-21.3
2018-Feb-13 14:00N 46°48' W 071°12'0 0.0 180 / 61044.6 -14.3-20.4
2018-Feb-13 13:00N 46°48' W 071°12'0 0.0 170 / 61044.3 -15.5-20.6
2018-Feb-13 12:00N 46°48' W 071°12'0 0.0 180 / 61043.5 -16.1-20.5
2018-Feb-13 11:00N 46°48' W 071°12'0 0.0 170 / 61042.5 -14.8-20.5
2018-Feb-13 10:00N 46°48' W 071°12'0 0.0 160 / 51041.7 -13.7-20.1
2018-Feb-13 09:00N 46°48' W 071°12'0 0.0 150 / 41040.7 -13.2-19.4
2018-Feb-13 08:00N 46°48' W 071°12'0 0.0 180 / 101039.8 -12.9-20.3
2018-Feb-13 07:00N 46°48' W 071°12'0 0.0 170 / 61039.1 -11.9-18.3
2018-Feb-13 06:00N 46°48' W 071°12'0 0.0 170 / 51038.6 -11.2-16.8
2018-Feb-13 05:00N 46°48' W 071°12'0 0.0 170 / 51037.5 -10.6-16.0
2018-Feb-13 04:00N 46°48' W 071°12'0 0.0 170 / 71036.6 -9.8-15.8
2018-Feb-13 03:00N 46°48' W 071°12'0 0.0 170 / 61035.5 -9.1-15.3
2018-Feb-13 02:00N 46°48' W 071°12'0 0.0 180 / 81034.6 -8.9-13.6
2018-Feb-13 01:00N 46°48' W 071°12'0 0.0 190 / 91033.0 -8.4-14.6
2018-Feb-13 00:00N 46°48' W 071°12'0 0.0 200 / 81031.5 -7.6-14.3
2018-Feb-12 23:00N 46°48' W 071°12'0 0.0 190 / 81030.2 -6.5-12.5
2018-Feb-12 22:00N 46°48' W 071°12'0 0.0 190 / 91028.4 -5.8-10.7
2018-Feb-12 21:00N 46°48' W 071°12'0 0.0 190 / 121027.1 -5.4-10.2
2018-Feb-12 20:00N 46°48' W 071°12'0 0.0 190 / 121025.6 -5.0-10.4
2018-Feb-12 19:00N 46°48' W 071°12'0 0.0 180 / 111024.8 -5.0-6.2
2018-Feb-12 18:00N 46°48' W 071°12'0 0.0 180 / 111024.5 -3.9-9.0
2018-Feb-12 17:00N 46°48' W 071°12'0 0.0 180 / 41024.0 -4.6-8.1
2018-Feb-12 16:00N 46°48' W 071°12'0 0.0 180 / 41023.5 -5.2-8.6
2018-Feb-12 15:00N 46°48' W 071°12'0 0.0 180 / 41022.6 -5.3-8.8
2018-Feb-12 14:00N 46°48' W 071°12'0 0.0 180 / 41021.8 -5.1-9.0
2018-Feb-12 13:00N 46°48' W 071°12'0 0.0 170 / 31020.1 -4.9-6.3
2018-Feb-12 12:00N 46°48' W 071°12'0 0.0 180 / 31018.1 -4.2-6.6
2018-Feb-12 11:00N 46°48' W 071°12'0 0.0 180 / 41016.4 -3.2-6.3
2018-Feb-12 10:00N 46°48' W 071°12'0 0.0 180 / 31013.9 -1.2-3.2
2018-Feb-12 09:00N 46°48' W 071°12'0 0.0 170 / 31011.0 0.5 0.4
2018-Feb-12 08:00N 46°48' W 071°12'0 0.0 170 / 31009.5 0.7 0.8
2018-Feb-12 07:00N 46°48' W 071°12'0 0.0 160 / 21008.0 0.3 0.4
2018-Feb-12 06:00N 46°48' W 071°12'0 0.0 1006.5 -1.2-1.0
2018-Feb-12 05:00N 46°48' W 071°12'0 0.0 1005.6 -1.5-1.3
2018-Feb-12 04:00N 46°48' W 071°12'0 0.0 350 / 31005.1 -1.9-1.8
2018-Feb-12 03:00N 46°48' W 071°12'0 0.0 350 / 41005.7 -2.7-2.6
2018-Feb-12 02:00N 46°48' W 071°12'0 0.0 360 / 81007.0 -3.4-3.4
2018-Feb-12 01:00N 46°48' W 071°12'0 0.0 350 / 111008.5 -3.7-3.6
2018-Feb-12 00:00N 46°48' W 071°12'0 0.0 360 / 161010.0 -4.8-4.8
2018-Feb-11 19:00N 46°48' W 071°12'0 0.0 360 / 161019.9 -5.2-7.2
2018-Feb-11 18:00N 46°48' W 071°12'0 0.0 350 / 151021.8 -5.1-6.7
2018-Feb-11 17:00N 46°48' W 071°12'0 0.0 340 / 101023.1 -5.0-6.7
2018-Feb-11 16:00N 46°48' W 071°12'0 0.0 360 / 151024.6 -4.9-7.0
2018-Feb-11 15:00N 46°48' W 071°12'0 0.0 360 / 131025.3 -4.9-6.2
2018-Feb-11 14:00N 46°48' W 071°12'0 0.0 350 / 151025.4 -4.9-6.5
2018-Feb-11 13:00N 46°48' W 071°12'0 0.0 360 / 161025.0 -4.9-7.2
2018-Feb-11 12:00N 46°48' W 071°12'0 0.0 350 / 121024.6 -4.7-6.3
2018-Feb-11 11:00N 46°48' W 071°12'0 0.0 350 / 121024.0 -4.4-4.9
2018-Feb-11 10:00N 46°48' W 071°12'0 0.0 360 / 141023.5 -4.4-4.6
2018-Feb-11 09:00N 46°48' W 071°12'0 0.0 320 / 41023.0 -5.2-5.1
2018-Feb-11 08:00N 46°48' W 071°12'0 0.0 260 / 21022.6 -5.5-5.6
2018-Feb-11 07:00N 46°48' W 071°12'0 0.0 160 / 31022.6 -4.9-4.9
2018-Feb-11 06:00N 46°48' W 071°12'0 0.0 170 / 51022.3 -5.1-5.1
2018-Feb-11 05:00N 46°48' W 071°12'0 0.0 180 / 51022.6 -5.1-5.1
2018-Feb-11 04:00N 46°48' W 071°12'0 0.0 170 / 41022.2 -4.7-4.7
2018-Feb-11 03:00N 46°48' W 071°12'0 0.0 170 / 31022.1 -4.5-4.5
2018-Feb-11 02:00N 46°48' W 071°12'0 0.0 160 / 31022.3 -4.5-4.5
2018-Feb-11 01:00N 46°48' W 071°12'0 0.0 180 / 41022.1 -5.2-5.1
2018-Feb-11 00:00N 46°48' W 071°12'0 0.0 200 / 31022.0 -5.6-5.5
2018-Feb-10 23:00N 46°48' W 071°12'0 0.0 200 / 21021.6 -5.5-5.5
2018-Feb-10 22:00N 46°48' W 071°12'0 0.0 190 / 21021.0 -5.7-5.6
2018-Feb-10 21:00N 46°48' W 071°12'0 0.0 170 / 11020.9 -5.0-5.0
2018-Feb-10 20:00N 46°48' W 071°12'0 0.0 230 / 11020.6 -4.6-5.1
2018-Feb-10 19:00N 46°48' W 071°12'0 0.0 050 / 21021.2 -4.9-5.2
2018-Feb-10 18:00N 46°48' W 071°12'0 0.0 330 / 11022.2 -5.7-5.8
2018-Feb-10 17:00N 46°48' W 071°12'0 0.0 320 / 21022.7 -6.3-6.3
2018-Feb-10 16:00N 46°48' W 071°12'0 0.0 320 / 31023.9 -7.2-7.3
2018-Feb-10 15:00N 46°48' W 071°12'0 0.0 310 / 41024.4 -7.8-7.9
2018-Feb-10 14:00N 46°48' W 071°12'0 0.0 320 / 41024.8 -8.9-9.0
2018-Feb-10 13:00N 46°48' W 071°12'0 0.0 310 / 41025.3 -9.5-9.6
2018-Feb-10 12:00N 46°48' W 071°12'0 0.0 320 / 51025.1 -10.3-10.4
2018-Feb-10 11:00N 46°48' W 071°12'0 0.0 320 / 31025.2 -10.2-10.3
2018-Feb-10 10:00N 46°48' W 071°12'0 0.0 320 / 51025.6 -11.4-11.5
2018-Feb-10 09:00N 46°48' W 071°12'0 0.0 320 / 51026.0 -12.4-12.5
2018-Feb-10 08:00N 46°48' W 071°12'0 0.0 330 / 31026.9 -12.4-13.6
2018-Feb-10 07:00N 46°48' W 071°12'0 0.0 290 / 11027.3 -12.1-13.7
2018-Feb-10 06:00N 46°48' W 071°12'0 0.0 210 / 21028.1 -12.7-14.2
2018-Feb-10 05:00N 46°48' W 071°12'0 0.0 210 / 11028.7 -12.6-14.5
2018-Feb-10 04:00N 46°48' W 071°12'0 0.0 230 / 11028.9 -11.6-13.9
2018-Feb-10 03:00N 46°48' W 071°12'0 0.0 280 / 11029.5 -10.5-13.7
2018-Feb-10 02:00N 46°48' W 071°12'0 0.0 210 / 21029.8 -10.1-14.7
2018-Feb-10 01:00N 46°48' W 071°12'0 0.0 180 / 21030.0 -9.8-14.5
2018-Feb-10 00:00N 46°48' W 071°12'0 0.0 190 / 31030.1 -9.6-14.7
2018-Feb-09 23:00N 46°48' W 071°12'0 0.0 170 / 61029.9 -8.4-14.6
2018-Feb-09 22:00N 46°48' W 071°12'0 0.0 180 / 51029.4 -8.3-14.8
2018-Feb-09 21:00N 46°48' W 071°12'0 0.0 180 / 101029.3 -7.8-15.3
2018-Feb-09 20:00N 46°48' W 071°12'0 0.0 170 / 81029.3 -8.0-14.3
2018-Feb-09 19:00N 46°48' W 071°12'0 0.0 160 / 91029.0 -7.8-14.6
2018-Feb-09 18:00N 46°48' W 071°12'0 0.0 170 / 71029.1 -8.3-13.0
2018-Feb-09 17:00N 46°48' W 071°12'0 0.0 160 / 71030.1 -8.9-13.2
2018-Feb-09 16:00N 46°48' W 071°12'0 0.0 160 / 71030.5 -9.7-12.7
2018-Feb-09 15:00N 46°48' W 071°12'0 0.0 170 / 71030.0 -10.9-12.5
2018-Feb-09 14:00N 46°48' W 071°12'0 0.0 170 / 61029.4 -11.6-12.6
2018-Feb-09 13:00N 46°48' W 071°12'0 0.0 170 / 61029.3 -11.7-12.3
2018-Feb-09 12:00N 46°48' W 071°12'0 0.0 180 / 31028.6 -13.3-14.2
2018-Feb-09 11:00N 46°48' W 071°12'0 0.0 170 / 41027.8 -13.5-14.8
2018-Feb-09 10:00N 46°48' W 071°12'0 0.0 190 / 51027.1 -13.8-15.2
2018-Feb-09 09:00N 46°48' W 071°12'0 0.0 200 / 31026.4 -14.1-15.3
2018-Feb-09 08:00N 46°48' W 071°12'0 0.0 160 / 31026.2 -12.9-14.3
2018-Feb-09 07:00N 46°48' W 071°12'0 0.0 180 / 41026.1 -13.1-15.1
2018-Feb-09 06:00N 46°48' W 071°12'0 0.0 190 / 31025.6 -13.4-15.5
2018-Feb-09 05:00N 46°48' W 071°12'0 0.0 180 / 41025.5 -12.4-15.2
2018-Feb-09 04:00N 46°48' W 071°12'0 0.0 160 / 61025.2 -11.1-14.5
2018-Feb-09 03:00N 46°48' W 071°12'0 0.0 170 / 51025.3 -11.4-14.5
2018-Feb-09 02:00N 46°48' W 071°12'0 0.0 210 / 11025.3 -11.6-14.9
2018-Feb-09 01:00N 46°48' W 071°12'0 0.0 100 / 31025.0 -10.0-14.0
2018-Feb-09 00:00N 46°48' W 071°12'0 0.0 120 / 21024.8 -9.1-14.1
2018-Feb-08 23:00N 46°48' W 071°12'0 0.0 200 / 31024.3 -9.7-16.0
2018-Feb-08 22:00N 46°48' W 071°12'0 0.0 170 / 71023.7 -8.6-15.9
2018-Feb-08 21:00N 46°48' W 071°12'0 0.0 170 / 81023.3 -7.9-15.5
2018-Feb-08 20:00N 46°48' W 071°12'0 0.0 170 / 81023.2 -7.8-14.8
2018-Feb-08 19:00N 46°48' W 071°12'0 0.0 150 / 71023.4 -7.9-14.0
2018-Feb-08 18:00N 46°48' W 071°12'0 0.0 170 / 71023.9 -8.3-15.0
2018-Feb-08 17:00N 46°48' W 071°12'0 0.0 160 / 71024.6 -9.2-15.2
2018-Feb-08 16:00N 46°48' W 071°12'0 0.0 170 / 61025.4 -10.1-16.0
2018-Feb-08 15:00N 46°48' W 071°12'0 0.0 170 / 51025.3 -10.7-15.8
2018-Feb-08 14:00N 46°48' W 071°12'0 0.0 190 / 71024.4 -12.4-16.6
2018-Feb-08 13:00N 46°48' W 071°12'0 0.0 190 / 81023.5 -13.2-16.9
2018-Feb-08 12:00N 46°48' W 071°12'0 0.0 180 / 51021.8 -11.6-15.7
2018-Feb-08 11:00N 46°48' W 071°12'0 0.0 170 / 51020.7 -10.9-14.7
2018-Feb-08 10:00N 46°48' W 071°12'0 0.0 200 / 31020.5 -11.2-14.4
2018-Feb-08 09:00N 46°48' W 071°12'0 0.0 170 / 41020.0 -9.6-13.1
2018-Feb-08 08:00N 46°48' W 071°12'0 0.0 190 / 81019.3 -9.7-11.7
2018-Feb-08 07:00N 46°48' W 071°12'0 0.0 170 / 41018.3 -9.3-9.6
2018-Feb-08 06:00N 46°48' W 071°12'   160 / 41017.8 -9.0-9.1

Dump ship's entire track history